CheckWX is a tool to help pilots better visualize weather data.  It is not intended as a substitute for an official pre-flight weather briefing.

12:51:18 UTC

RPLB TAF
Subic Bay International Airport
Olongapo City, Philippines
TAF RPLB 171100Z 1712/1812 19005KT 9999 FEW020 SCT080 TX32/1806Z TN25/1722Z TEMPO 1712/1718 12008KT 7000 -TSRA FEW016CB SCT018 BKN070

Jun-17@
12:00 UTC

Jun-17 @ 12:00 UTC

Jun-18@
12:00 UTC

Jun-18 @ 12:00 UTC

TAF RPLB 171100Z 1712/1812 19005KT 9999 FEW020 SCT080 TX32/1806Z TN25/1722Z
Wind
  • 190° at 5 KTS
Cloud Levels
  • Few at 2,000' AGL
  • Scattered at 8,000' AGL

Jun-17@
12:00 UTC

Jun-17 @ 12:00 UTC

Jun-17@
18:00 UTC

Jun-17 @ 18:00 UTC

TEMPO 1712/1718 12008KT 7000 -TSRA FEW016CB SCT018 BKN070

Temporary

Temporary Changes expected for less than half the time period

Wind
  • 120° at 8 KTS
Conditions
Light Thunderstorm, Light Rain
Cloud Levels
  • Few at 1,600' AGL
  • Scattered at 1,800' AGL
  • Broken at 7,000' AGL